createdAt,value
2023-01-03T00:01:14.994Z,54.74
2023-01-03T00:03:42.864Z,54.07
2023-01-03T00:06:28.117Z,54.34
2023-01-03T00:08:56.474Z,54.67
2023-01-03T00:11:44.842Z,54.82
2023-01-03T00:14:14.465Z,54.80
2023-01-03T00:16:41.950Z,54.41
2023-01-03T00:19:11.683Z,54.22
2023-01-03T00:21:40.057Z,54.22
2023-01-03T00:24:07.783Z,54.34
2023-01-03T00:26:35.734Z,54.45
2023-01-03T00:29:04.320Z,54.22
2023-01-03T00:31:33.856Z,54.50
2023-01-03T00:34:00.862Z,53.93
2023-01-03T00:36:28.251Z,54.24
2023-01-03T00:38:55.586Z,54.12
2023-01-03T00:41:22.645Z,54.37
2023-01-03T00:43:50.874Z,54.00
2023-01-03T00:46:20.306Z,53.61
2023-01-03T00:48:47.921Z,53.33
2023-01-03T00:51:22.495Z,53.58
2023-01-03T00:53:52.480Z,53.58
2023-01-03T00:56:21.973Z,53.48
2023-01-03T00:58:49.338Z,53.11
2023-01-03T01:01:18.528Z,53.14
2023-01-03T01:03:48.333Z,53.03
2023-01-03T01:06:17.155Z,53.58
2023-01-03T01:08:45.392Z,53.39
2023-01-03T01:11:13.767Z,53.50
2023-01-03T01:13:42.724Z,54.42
2023-01-03T01:16:15.688Z,53.39
2023-01-03T01:18:44.461Z,53.18
2023-01-03T01:21:16.292Z,53.94
2023-01-03T01:23:44.472Z,52.78
2023-01-03T01:26:14.218Z,52.89
2023-01-03T01:28:41.932Z,52.54
2023-01-03T01:31:10.807Z,53.32
2023-01-03T01:33:37.891Z,52.75
2023-01-03T01:36:09.113Z,52.66
2023-01-03T01:38:36.643Z,52.82
2023-01-03T01:41:04.311Z,52.75
2023-01-03T01:43:50.011Z,53.25
2023-01-03T01:46:28.264Z,52.19
2023-01-03T01:48:59.137Z,52.78
2023-01-03T01:51:29.850Z,52.50
2023-01-03T01:54:00.616Z,53.53
2023-01-03T01:56:40.348Z,53.43
2023-01-03T01:59:09.594Z,52.74
2023-01-03T02:01:36.795Z,52.82
2023-01-03T02:04:10.079Z,52.35
2023-01-03T02:06:39.321Z,52.75
2023-01-03T02:09:06.356Z,52.45
2023-01-03T02:12:15.099Z,52.21
2023-01-03T02:15:13.537Z,52.32
2023-01-03T02:17:53.666Z,52.51
2023-01-03T02:20:23.319Z,52.24
2023-01-03T02:23:17.548Z,52.39
2023-01-03T02:25:50.483Z,53.00
2023-01-03T02:28:38.990Z,53.18
2023-01-03T02:31:25.527Z,52.44
2023-01-03T02:34:01.424Z,52.43
2023-01-03T02:36:53.763Z,52.76
2023-01-03T02:39:46.569Z,53.41
2023-01-03T02:43:01.190Z,53.26
2023-01-03T02:45:50.084Z,53.82
2023-01-03T02:48:45.363Z,53.73
2023-01-03T02:51:27.621Z,52.58
2023-01-03T02:53:55.851Z,52.82
2023-01-03T02:56:31.024Z,52.75
2023-01-03T02:59:06.602Z,54.57
2023-01-03T03:01:36.231Z,56.08
2023-01-03T03:04:03.984Z,56.93
2023-01-03T03:06:42.928Z,58.14
2023-01-03T03:09:10.030Z,59.05
2023-01-03T03:11:58.322Z,59.33
2023-01-03T03:14:35.219Z,59.77
2023-01-03T03:17:06.945Z,60.17
2023-01-03T03:19:56.097Z,60.55
2023-01-03T03:23:05.753Z,60.77
2023-01-03T03:25:41.354Z,60.71
2023-01-03T03:28:32.217Z,60.67
2023-01-03T03:31:04.052Z,60.94
2023-01-03T03:33:35.781Z,61.57
2023-01-03T03:36:08.955Z,61.41
2023-01-03T03:38:43.443Z,61.96
2023-01-03T03:42:00.855Z,61.93
2023-01-03T03:44:54.569Z,62.51
2023-01-03T03:47:43.844Z,62.67
2023-01-03T03:50:20.708Z,62.78
2023-01-03T03:52:52.535Z,63.50
2023-01-03T03:55:30.949Z,63.40
2023-01-03T03:58:03.858Z,63.16
2023-01-03T04:00:36.111Z,63.19
2023-01-03T04:03:06.531Z,63.71
2023-01-03T04:05:39.575Z,64.06
2023-01-03T04:08:07.152Z,64.02
2023-01-03T04:10:37.828Z,64.33
2023-01-03T04:13:05.785Z,63.92
2023-01-03T04:15:32.777Z,64.30
2023-01-03T04:18:02.684Z,64.29
2023-01-03T04:20:30.257Z,64.59
2023-01-03T04:22:57.552Z,64.88
2023-01-03T04:25:25.248Z,64.61
2023-01-03T04:27:52.303Z,65.51
2023-01-03T04:30:21.744Z,66.06
2023-01-03T04:32:54.207Z,66.24
2023-01-03T04:35:21.300Z,66.52
2023-01-03T04:37:48.385Z,66.58
2023-01-03T04:40:15.620Z,66.61
2023-01-03T04:43:01.210Z,67.37
2023-01-03T04:45:28.242Z,67.70
2023-01-03T04:47:59.810Z,67.22
2023-01-03T04:50:27.010Z,67.45
2023-01-03T04:52:53.984Z,67.53
2023-01-03T04:55:21.095Z,67.26
2023-01-03T04:57:48.151Z,67.04
2023-01-03T05:00:15.682Z,67.29
2023-01-03T05:02:42.802Z,68.15
2023-01-03T05:05:10.526Z,67.79
2023-01-03T05:07:37.890Z,68.27
2023-01-03T05:10:05.338Z,68.68
2023-01-03T05:12:32.489Z,69.22
2023-01-03T05:14:59.474Z,68.69
2023-01-03T05:17:29.449Z,68.71
2023-01-03T05:20:15.127Z,68.46
2023-01-03T05:23:00.806Z,68.58
2023-01-03T05:25:46.241Z,68.41
2023-01-03T05:28:17.365Z,68.73
2023-01-03T05:30:44.940Z,68.63
2023-01-03T05:33:11.910Z,69.46
2023-01-03T05:35:38.957Z,69.45
2023-01-03T05:38:06.021Z,69.42
2023-01-03T05:40:39.260Z,69.68
2023-01-03T05:43:08.746Z,70.27
2023-01-03T05:45:40.013Z,70.55
2023-01-03T05:48:10.216Z,70.27
2023-01-03T05:50:37.988Z,70.13
2023-01-03T05:53:05.058Z,70.03
2023-01-03T05:55:32.080Z,70.14
2023-01-03T05:57:59.099Z,70.28
2023-01-03T06:00:26.117Z,70.92
2023-01-03T06:02:53.259Z,70.62
2023-01-03T06:05:20.338Z,70.78
2023-01-03T06:07:47.693Z,71.15
2023-01-03T06:10:15.334Z,70.84
2023-01-03T06:12:42.385Z,71.59
2023-01-03T06:15:09.795Z,71.91
2023-01-03T06:17:57.714Z,71.75
2023-01-03T06:20:27.306Z,71.25
2023-01-03T06:23:19.899Z,71.50
2023-01-03T06:25:46.910Z,71.72
2023-01-03T06:28:13.874Z,71.65
2023-01-03T06:30:42.146Z,72.35
2023-01-03T06:33:12.219Z,72.79
2023-01-03T06:35:39.659Z,72.77
2023-01-03T06:38:06.788Z,72.84
2023-01-03T06:40:39.342Z,73.02
2023-01-03T06:43:09.666Z,73.64
2023-01-03T06:45:56.645Z,73.17
2023-01-03T06:48:42.208Z,72.23
2023-01-03T06:51:29.333Z,72.51
2023-01-03T06:53:56.338Z,71.94
2023-01-03T06:56:23.397Z,71.75
2023-01-03T06:58:50.755Z,71.27
2023-01-03T07:01:19.428Z,70.75
2023-01-03T07:03:46.530Z,70.60
2023-01-03T07:06:13.608Z,70.65
2023-01-03T07:08:47.695Z,70.62
2023-01-03T07:11:15.426Z,71.50
2023-01-03T07:14:00.891Z,71.32
2023-01-03T07:16:30.860Z,71.64
2023-01-03T07:18:59.349Z,72.13
2023-01-03T07:21:28.447Z,72.37
2023-01-03T07:23:56.981Z,71.66
2023-01-03T07:26:25.587Z,71.64
2023-01-03T07:28:52.923Z,71.62
2023-01-03T07:31:20.268Z,76.80
2023-01-03T07:33:47.407Z,72.26
2023-01-03T07:36:16.492Z,72.34
2023-01-03T07:38:45.426Z,72.30
2023-01-03T07:41:14.268Z,72.88
2023-01-03T07:43:45.945Z,73.21
2023-01-03T07:46:20.903Z,73.37
2023-01-03T07:48:50.319Z,73.59
2023-01-03T07:51:20.790Z,73.36
2023-01-03T07:53:52.637Z,73.58
2023-01-03T07:56:21.331Z,73.19
2023-01-03T07:58:49.451Z,73.74
2023-01-03T08:01:19.293Z,73.53
2023-01-03T08:03:46.720Z,72.61
2023-01-03T08:06:22.660Z,72.44
2023-01-03T08:09:10.388Z,72.48
2023-01-03T08:11:56.271Z,72.03
2023-01-03T08:14:26.097Z,72.29
2023-01-03T08:16:55.374Z,71.92
2023-01-03T08:19:23.183Z,72.51
2023-01-03T08:21:50.236Z,72.61
2023-01-03T08:24:17.358Z,72.55
2023-01-03T08:26:44.470Z,72.90
2023-01-03T08:29:11.533Z,72.82
2023-01-03T08:31:43.782Z,72.60
2023-01-03T08:34:18.394Z,72.54
2023-01-03T08:36:51.645Z,72.63
2023-01-03T08:39:23.961Z,71.84
2023-01-03T08:41:57.517Z,71.89
2023-01-03T08:44:25.977Z,72.07
2023-01-03T08:46:55.821Z,72.25
2023-01-03T08:49:23.473Z,72.37
2023-01-03T08:51:50.470Z,72.60
2023-01-03T08:54:17.464Z,72.74
2023-01-03T08:56:44.492Z,72.62
2023-01-03T08:59:12.604Z,73.24
2023-01-03T09:01:40.449Z,73.21
2023-01-03T09:04:07.741Z,73.43
2023-01-03T09:06:34.838Z,73.58
2023-01-03T09:09:09.523Z,74.00
2023-01-03T09:11:36.689Z,73.47
2023-01-03T09:14:03.716Z,72.66
2023-01-03T09:16:30.832Z,73.34
2023-01-03T09:18:58.227Z,72.83
2023-01-03T09:21:25.299Z,72.60
2023-01-03T09:23:52.373Z,72.81
2023-01-03T09:26:19.389Z,72.74
2023-01-03T09:28:46.478Z,72.62
2023-01-03T09:31:13.523Z,72.63
2023-01-03T09:33:40.717Z,72.86
2023-01-03T09:36:08.129Z,72.53
2023-01-03T09:38:35.152Z,72.37
2023-01-03T09:41:06.247Z,71.79
2023-01-03T09:43:43.445Z,72.14
2023-01-03T09:46:30.821Z,72.11
2023-01-03T09:48:58.752Z,72.37
2023-01-03T09:51:51.061Z,71.67
2023-01-03T09:54:48.835Z,72.32
2023-01-03T09:57:46.001Z,72.43
2023-01-03T10:00:49.456Z,73.11
2023-01-03T10:03:50.384Z,73.70
2023-01-03T10:06:18.321Z,73.19
2023-01-03T10:09:04.051Z,72.08
2023-01-03T10:12:10.001Z,72.27
2023-01-03T10:14:39.847Z,71.67
2023-01-03T10:17:32.934Z,71.88
2023-01-03T10:20:29.496Z,72.95
2023-01-03T10:23:01.076Z,72.17
2023-01-03T10:25:29.586Z,71.91
2023-01-03T10:28:04.773Z,71.96
2023-01-03T10:31:05.440Z,72.48
2023-01-03T10:33:45.592Z,72.58
2023-01-03T10:36:14.805Z,72.61
2023-01-03T10:38:47.954Z,72.51
2023-01-03T10:41:33.597Z,71.84
2023-01-03T10:44:04.474Z,72.68
2023-01-03T10:46:32.180Z,73.09
2023-01-03T10:49:29.357Z,72.38
2023-01-03T10:52:06.615Z,72.17
2023-01-03T10:54:53.599Z,71.53
2023-01-03T10:57:54.449Z,71.62
2023-01-03T11:00:24.297Z,71.12
2023-01-03T11:02:51.832Z,70.94
2023-01-03T11:05:21.872Z,70.45
2023-01-03T11:08:20.276Z,70.67
2023-01-03T11:10:53.985Z,70.93
2023-01-03T11:13:29.463Z,70.68
2023-01-03T11:15:59.890Z,70.78
2023-01-03T11:18:29.706Z,70.30
2023-01-03T11:21:07.265Z,70.47
2023-01-03T11:23:40.568Z,70.54
2023-01-03T11:26:46.528Z,70.39
2023-01-03T11:29:23.385Z,70.18
2023-01-03T11:32:14.815Z,69.83
2023-01-03T11:35:22.805Z,69.97
2023-01-03T11:38:19.679Z,69.63
2023-01-03T11:41:21.389Z,70.13
2023-01-03T11:44:22.375Z,70.19
2023-01-03T11:47:14.077Z,70.11
2023-01-03T11:50:19.874Z,70.28
2023-01-03T11:52:59.401Z,69.83
2023-01-03T11:55:45.300Z,70.72
2023-01-03T11:58:24.381Z,70.37
2023-01-03T12:01:16.448Z,70.29
2023-01-03T12:04:25.098Z,70.35
2023-01-03T12:07:45.244Z,70.46
2023-01-03T12:09:57.427Z,71.59
2023-01-03T12:12:53.689Z,70.97
2023-01-03T12:15:26.681Z,71.75
2023-01-03T12:18:03.661Z,71.49
2023-01-03T12:20:36.245Z,71.56
2023-01-03T12:23:32.189Z,72.37
2023-01-03T12:26:05.549Z,72.47
2023-01-03T12:28:35.714Z,72.85
2023-01-03T12:31:09.836Z,72.23
2023-01-03T12:33:55.647Z,72.84
2023-01-03T12:36:28.125Z,72.43
2023-01-03T12:39:33.333Z,71.92
2023-01-03T12:42:12.215Z,72.13
2023-01-03T12:44:42.919Z,72.18
2023-01-03T12:47:47.344Z,72.02
2023-01-03T12:50:36.391Z,72.28
2023-01-03T12:53:25.459Z,72.86
2023-01-03T12:56:04.719Z,72.64
2023-01-03T12:59:09.558Z,72.78
2023-01-03T13:01:54.550Z,72.86
2023-01-03T13:04:32.555Z,72.84
2023-01-03T13:07:28.476Z,73.44
2023-01-03T13:10:01.395Z,73.40
2023-01-03T13:12:36.711Z,74.40
2023-01-03T13:15:03.863Z,73.77
2023-01-03T13:17:42.288Z,73.92
2023-01-03T13:20:35.406Z,74.19
2023-01-03T13:23:36.051Z,73.64
2023-01-03T13:26:06.165Z,73.11
2023-01-03T13:28:35.642Z,73.48
2023-01-03T13:31:36.766Z,73.43
2023-01-03T13:34:32.563Z,73.52
2023-01-03T13:37:09.829Z,73.29
2023-01-03T13:39:45.045Z,73.76
2023-01-03T13:42:39.192Z,73.25
2023-01-03T13:45:30.284Z,73.17
2023-01-03T13:47:58.611Z,74.06
2023-01-03T13:50:30.466Z,74.01
2023-01-03T13:53:10.048Z,73.46
2023-01-03T13:55:41.251Z,73.00
2023-01-03T13:58:34.952Z,73.22
2023-01-03T14:01:06.514Z,72.90
2023-01-03T14:04:02.801Z,72.62
2023-01-03T14:07:05.749Z,73.36
2023-01-03T14:09:46.119Z,72.85
2023-01-03T14:12:46.860Z,72.84
2023-01-03T14:15:26.917Z,73.07
2023-01-03T14:17:58.237Z,73.41
2023-01-03T14:20:35.584Z,72.80
2023-01-03T14:23:31.898Z,72.07
2023-01-03T14:25:54.766Z,71.25
2023-01-03T14:28:27.389Z,70.81
2023-01-03T14:31:00.495Z,70.87
2023-01-03T14:33:37.089Z,71.15
2023-01-03T14:36:08.254Z,70.89
2023-01-03T14:38:36.781Z,70.37
2023-01-03T14:41:04.076Z,70.43
2023-01-03T14:43:33.727Z,70.44
2023-01-03T14:46:06.376Z,70.62
2023-01-03T14:48:34.353Z,70.85
2023-01-03T14:51:05.867Z,71.10
2023-01-03T14:53:34.090Z,71.07
2023-01-03T14:56:01.931Z,70.81
2023-01-03T14:58:38.055Z,70.65
2023-01-03T15:01:08.214Z,70.57
2023-01-03T15:03:39.607Z,70.56
2023-01-03T15:06:28.766Z,70.22
2023-01-03T15:08:58.707Z,70.50
2023-01-03T15:11:56.504Z,70.58
2023-01-03T15:14:32.194Z,70.16
2023-01-03T15:17:19.631Z,70.33
2023-01-03T15:19:57.178Z,70.91
2023-01-03T15:22:32.845Z,71.01
2023-01-03T15:25:08.677Z,70.80
2023-01-03T15:27:38.714Z,70.62
2023-01-03T15:30:14.519Z,70.17
2023-01-03T15:33:03.173Z,70.03
2023-01-03T15:35:37.587Z,69.83
2023-01-03T15:38:17.041Z,70.49
2023-01-03T15:40:48.407Z,70.33
2023-01-03T15:43:24.600Z,70.41
2023-01-03T15:46:05.164Z,69.59
2023-01-03T15:48:37.079Z,70.14
2023-01-03T15:51:06.082Z,69.78
2023-01-03T15:53:43.746Z,70.56
2023-01-03T15:56:27.461Z,70.42
2023-01-03T15:58:56.624Z,70.48
2023-01-03T16:01:25.169Z,69.72
2023-01-03T16:03:54.240Z,69.58
2023-01-03T16:06:21.523Z,69.71
2023-01-03T16:08:48.592Z,69.50
2023-01-03T16:11:24.589Z,69.08
2023-01-03T16:13:59.244Z,69.68
2023-01-03T16:16:30.432Z,69.60
2023-01-03T16:18:58.221Z,69.40
2023-01-03T16:21:25.909Z,69.52
2023-01-03T16:23:53.061Z,69.52
2023-01-03T16:26:20.161Z,69.30
2023-01-03T16:28:47.147Z,69.43
2023-01-03T16:31:35.520Z,68.80
2023-01-03T16:34:04.897Z,69.22
2023-01-03T16:36:36.669Z,69.32
2023-01-03T16:39:11.669Z,69.62
2023-01-03T16:41:38.705Z,69.66
2023-01-03T16:44:05.840Z,69.46
2023-01-03T16:46:35.982Z,70.36
2023-01-03T16:49:03.429Z,70.15
2023-01-03T16:51:34.421Z,69.79
2023-01-03T16:54:03.824Z,69.60
2023-01-03T16:56:31.017Z,69.98
2023-01-03T16:58:57.966Z,70.14
2023-01-03T17:01:25.098Z,69.90
2023-01-03T17:03:52.252Z,69.47
2023-01-03T17:06:27.362Z,69.28
2023-01-03T17:08:58.342Z,69.08
2023-01-03T17:11:26.600Z,69.31
2023-01-03T17:13:59.791Z,68.82
2023-01-03T17:16:27.058Z,69.38
2023-01-03T17:18:54.322Z,68.79
2023-01-03T17:21:32.220Z,68.89
2023-01-03T17:24:03.104Z,68.43
2023-01-03T17:26:35.661Z,68.92
2023-01-03T17:29:06.123Z,68.76
2023-01-03T17:31:33.249Z,68.88
2023-01-03T17:34:00.389Z,69.17
2023-01-03T17:36:33.241Z,69.31
2023-01-03T17:39:03.467Z,68.84
2023-01-03T17:41:51.043Z,68.82
2023-01-03T17:44:18.041Z,68.54
2023-01-03T17:47:03.592Z,69.08
2023-01-03T17:49:30.727Z,68.90
2023-01-03T17:52:02.620Z,68.85
2023-01-03T17:54:40.683Z,68.68
2023-01-03T17:57:12.781Z,68.44
2023-01-03T17:59:39.887Z,68.62
2023-01-03T18:02:36.456Z,69.02
2023-01-03T18:05:26.563Z,69.13
2023-01-03T18:07:51.615Z,69.29
2023-01-03T18:10:23.139Z,68.77
2023-01-03T18:12:50.222Z,68.73
2023-01-03T18:15:21.795Z,68.93
2023-01-03T18:17:50.905Z,69.15
2023-01-03T18:20:19.737Z,68.95
2023-01-03T18:22:47.558Z,68.69
2023-01-03T18:25:22.029Z,69.22
2023-01-03T18:27:53.971Z,68.67
2023-01-03T18:30:21.318Z,68.49
2023-01-03T18:32:48.502Z,68.72
2023-01-03T18:35:20.802Z,69.63
2023-01-03T18:37:55.762Z,69.56
2023-01-03T18:40:27.799Z,69.65
2023-01-03T18:43:15.699Z,68.89
2023-01-03T18:45:42.852Z,69.07
2023-01-03T18:48:19.082Z,69.25
2023-01-03T18:50:53.689Z,69.63
2023-01-03T18:53:28.534Z,69.78
2023-01-03T18:55:56.001Z,69.29
2023-01-03T18:58:35.454Z,69.24
2023-01-03T19:01:04.746Z,68.64
2023-01-03T19:03:33.965Z,68.90
2023-01-03T19:06:02.484Z,69.60
2023-01-03T19:08:34.183Z,69.27
2023-01-03T19:11:13.690Z,69.72
2023-01-03T19:13:54.682Z,68.97
2023-01-03T19:16:25.457Z,69.23
2023-01-03T19:18:52.853Z,69.93
2023-01-03T19:21:22.313Z,70.04
2023-01-03T19:24:01.165Z,69.21
2023-01-03T19:26:34.575Z,69.32
2023-01-03T19:29:04.799Z,69.58
2023-01-03T19:31:43.338Z,69.18
2023-01-03T19:34:15.823Z,69.40
2023-01-03T19:36:43.010Z,68.60
2023-01-03T19:39:11.383Z,69.64
2023-01-03T19:42:09.931Z,69.71
2023-01-03T19:44:40.628Z,70.04
2023-01-03T19:47:13.672Z,69.59
2023-01-03T19:49:41.721Z,69.62
2023-01-03T19:52:08.743Z,68.72
2023-01-03T19:54:35.786Z,69.23
2023-01-03T19:57:02.773Z,69.09
2023-01-03T19:59:35.206Z,69.11
2023-01-03T20:02:25.775Z,68.51
2023-01-03T20:04:54.542Z,67.72
2023-01-03T20:07:21.576Z,68.36
2023-01-03T20:09:48.573Z,68.25
2023-01-03T20:12:21.797Z,68.25
2023-01-03T20:14:51.917Z,68.43
2023-01-03T20:17:27.195Z,68.01
2023-01-03T20:19:54.357Z,68.31
2023-01-03T20:23:02.474Z,67.99
2023-01-03T20:25:32.119Z,67.65
2023-01-03T20:28:00.765Z,67.52
2023-01-03T20:30:30.617Z,68.20
2023-01-03T20:32:57.850Z,67.69
2023-01-03T20:38:17.347Z,67.53
2023-01-03T20:40:44.400Z,67.16
2023-01-03T20:43:15.494Z,66.07
2023-01-03T20:45:43.102Z,67.02
2023-01-03T20:48:20.902Z,66.94
2023-01-03T20:50:51.999Z,66.00
2023-01-03T20:53:27.230Z,66.66
2023-01-03T20:55:54.903Z,66.76
2023-01-03T20:58:27.924Z,66.90
2023-01-03T21:01:03.727Z,66.73
2023-01-03T21:03:32.442Z,66.43
2023-01-03T21:05:59.669Z,66.44
2023-01-03T21:08:45.341Z,65.77
2023-01-03T21:11:12.473Z,65.17
2023-01-03T21:13:39.803Z,65.42
2023-01-03T21:16:52.539Z,65.21
2023-01-03T21:19:24.581Z,64.56
2023-01-03T21:21:54.406Z,64.45
2023-01-03T21:24:23.937Z,64.96
2023-01-03T21:26:51.688Z,65.24
2023-01-03T21:29:18.696Z,64.99
2023-01-03T21:31:46.395Z,65.23
2023-01-03T21:34:18.421Z,66.02
2023-01-03T21:36:45.603Z,65.24
2023-01-03T21:39:13.053Z,65.54
2023-01-03T21:42:00.151Z,65.75
2023-01-03T21:44:27.494Z,65.96
2023-01-03T21:46:54.671Z,66.47
2023-01-03T21:49:21.727Z,66.14
2023-01-03T21:51:48.774Z,66.46
2023-01-03T21:54:15.825Z,65.60
2023-01-03T21:56:46.558Z,65.17
2023-01-03T21:59:16.960Z,65.86
2023-01-03T22:02:04.329Z,65.15
2023-01-03T22:04:32.275Z,65.61
2023-01-03T22:07:01.283Z,66.32
2023-01-03T22:09:49.032Z,66.79
2023-01-03T22:12:16.791Z,67.32
2023-01-03T22:14:44.949Z,66.82
2023-01-03T22:17:12.032Z,67.98
2023-01-03T22:19:39.191Z,66.84
2023-01-03T22:22:06.237Z,66.88
2023-01-03T22:24:33.380Z,66.94
2023-01-03T22:27:00.462Z,67.38
2023-01-03T22:29:27.583Z,67.57
2023-01-03T22:31:54.844Z,67.65
2023-01-03T22:34:22.045Z,67.59
2023-01-03T22:36:49.081Z,66.91
2023-01-03T22:39:16.087Z,67.39
2023-01-03T22:41:43.147Z,66.79
2023-01-03T22:44:11.033Z,66.51
2023-01-03T22:46:39.053Z,67.28
2023-01-03T22:49:06.145Z,67.30
2023-01-03T22:51:33.230Z,66.64
2023-01-03T22:54:00.385Z,66.75
2023-01-03T22:56:27.538Z,65.81
2023-01-03T22:58:54.587Z,65.86
2023-01-03T23:01:27.964Z,65.82
2023-01-03T23:04:00.189Z,65.81
2023-01-03T23:06:29.473Z,65.21
2023-01-03T23:08:57.523Z,65.42
2023-01-03T23:11:45.094Z,66.16
2023-01-03T23:14:17.684Z,66.43
2023-01-03T23:16:45.773Z,66.15
2023-01-03T23:19:15.663Z,66.09
2023-01-03T23:21:45.150Z,67.16
2023-01-03T23:24:14.110Z,67.17
2023-01-03T23:26:41.236Z,66.44
2023-01-03T23:29:09.772Z,67.00
2023-01-03T23:31:37.162Z,67.13
2023-01-03T23:34:04.303Z,67.25
2023-01-03T23:36:31.369Z,67.30
2023-01-03T23:38:58.387Z,67.71
2023-01-03T23:41:25.427Z,67.78
2023-01-03T23:43:53.597Z,66.89
2023-01-03T23:46:23.891Z,67.18
2023-01-03T23:48:55.829Z,66.99
2023-01-03T23:51:24.251Z,66.49
2023-01-03T23:53:52.205Z,67.09
2023-01-03T23:56:21.684Z,66.65
2023-01-03T23:58:49.272Z,66.77
